KVLD/VLD METAR and TAF weather

Enter ICAO airport designator
Station Type Date Time Source
KVLD METAR 2020/11/27 14:12 UTC NOAA

KVLD 271412Z AUTO 00000KT 3SM BR OVC003 21/20 A3015 RMK AO2 T02060200


Station Type Date Time Source
KVLD Decoded METAR 2020/11/27 14:12 UTC NOAA

VALDOSTA REGIONAL AIRPORT, GA, United States (KVLD) 30-47N 083-16W
Nov 27, 2020 - 09:12 AM EST / 2020.11.27 1412 UTC
Wind: Calm:0
Visibility: 3 mile(s):0
Sky conditions: overcast
Weather: mist
Temperature: 69.1 F (20.6 C)
Dew Point: 68.0 F (20.0 C)
Relative Humidity: 96%
Pressure (altimeter): 30.15 in. Hg (1020 hPa)
ob: KVLD 271412Z AUTO 00000KT 3SM BR OVC003 21/20 A3015 RMK AO2 T02060200
cycle: 14

Station Type Date Time Source
KVLD TAF 2020/11/27 12:42 UTC NOAA

TAF KVLD 271139Z 2712/2812 VRB02KT 1/2SM FG BKN003
FM271500 VRB02KT P6SM BKN007
FM271600 VRB03KT P6SM BKN020
FM271700 VRB03KT P6SM BKN050
FM280600 VRB03KT 2SM BR BKN008
FM280800 VRB03KT 2SM BR OVC004

Example: see airport list